Etusivu
METAR-TAF:

METAR-TAF

Lentoasemat :

Mosjøen, Norja

Leveyspiiri: 65-48N, Pituuspiiri: 013-08E, korkeus merenpinnasta: 70 m

Tämänhetkinen sää

Tämä raportti tehtiin 34 minuuttia sitten, kello 17.50 UTC
Tuuli 8 kn etelästä, vaihdellen etelän/kaakon ja etelän/lounaan välillä
Lämpötila 16°C
Kosteus 29%
Ilmanpaine 1019 hPa
Näkyvyys 10 km tai enemmän
ei pilviä alle 1500 m:ssä eikä cumulonimbus-pilviä

METAR: ENMS 251750Z 18008KT 150V210 CAVOK 16/M02 Q1019 RMK WIND 412FT 20005KT 120V230

Aika: 20:24 (18:24 UTC)


TAF: puuttuu

Säähavainnot ja -ennusteet yli 4000 lentoasemalta (METAR- ja TAF-raportit).

Käytössä olevat sääasemat on merkitty karttaan keltaisilla ja punaisilla pisteillä.

Aseta hiiri pisteen päälle nähdäksesi sääaseman nimen.

Klikkaa sitten nähdäksesi säähavainnot ja -ennusteet.

Kartan vaihtaminen: klikkaa mustalla rastilla varustettuja vihreitä pisteitä, niin voit zoomata sisään; viivalla varustettua vihreää pistettä, niin voit zoomata ulos tai vihreitä nuolia, niin pääset viereisille kartoille.


METAR-TAF: